sensor_id;sensor_type;location;lat;lon;timestamp;temperature;humidity
418;DHT22;49;48.530;9.200;2022-12-10T00:00:17;9.40;41.50
418;DHT22;49;48.530;9.200;2022-12-10T00:03:02;8.80;45.30
418;DHT22;49;48.530;9.200;2022-12-10T00:05:49;8.30;44.20
418;DHT22;49;48.530;9.200;2022-12-10T00:08:27;8.10;47.30
418;DHT22;49;48.530;9.200;2022-12-10T00:14:53;7.40;53.70
418;DHT22;49;48.530;9.200;2022-12-10T00:17:44;8.30;56.00
418;DHT22;49;48.530;9.200;2022-12-10T00:20:42;8.80;51.80
418;DHT22;49;48.530;9.200;2022-12-10T00:23:40;9.00;50.40
418;DHT22;49;48.530;9.200;2022-12-10T00:26:36;9.00;48.80
418;DHT22;49;48.530;9.200;2022-12-10T00:29:14;9.40;46.50
418;DHT22;49;48.530;9.200;2022-12-10T00:32:01;9.40;44.20
418;DHT22;49;48.530;9.200;2022-12-10T00:34:43;9.20;43.10
418;DHT22;49;48.530;9.200;2022-12-10T00:37:55;8.90;44.30
418;DHT22;49;48.530;9.200;2022-12-10T00:40:28;8.40;46.00
418;DHT22;49;48.530;9.200;2022-12-10T00:43:04;8.20;48.30
418;DHT22;49;48.530;9.200;2022-12-10T00:45:49;8.00;48.80
418;DHT22;49;48.530;9.200;2022-12-10T00:48:30;8.40;57.40
418;DHT22;49;48.530;9.200;2022-12-10T00:51:19;8.70;47.10
418;DHT22;49;48.530;9.200;2022-12-10T00:54:01;8.80;52.30
418;DHT22;49;48.530;9.200;2022-12-10T00:56:40;8.80;46.70
418;DHT22;49;48.530;9.200;2022-12-10T00:59:21;8.90;47.60
418;DHT22;49;48.530;9.200;2022-12-10T01:01:54;8.60;45.40
418;DHT22;49;48.530;9.200;2022-12-10T01:04:45;8.60;51.80
418;DHT22;49;48.530;9.200;2022-12-10T01:07:39;8.80;49.70
418;DHT22;49;48.530;9.200;2022-12-10T01:10:23;9.20;54.50
418;DHT22;49;48.530;9.200;2022-12-10T01:12:56;9.50;46.20
418;DHT22;49;48.530;9.200;2022-12-10T01:15:27;9.50;47.30
418;DHT22;49;48.530;9.200;2022-12-10T01:18:06;9.20;42.90
418;DHT22;49;48.530;9.200;2022-12-10T01:21:14;9.10;44.90
418;DHT22;49;48.530;9.200;2022-12-10T01:23:47;9.50;50.10
418;DHT22;49;48.530;9.200;2022-12-10T01:27:10;9.40;46.10
418;DHT22;49;48.530;9.200;2022-12-10T01:30:13;9.80;50.30
418;DHT22;49;48.530;9.200;2022-12-10T01:33:49;9.80;42.80
418;DHT22;49;48.530;9.200;2022-12-10T01:37:00;10.00;43.90
418;DHT22;49;48.530;9.200;2022-12-10T01:39:36;9.60;40.50
418;DHT22;49;48.530;9.200;2022-12-10T01:42:15;9.60;43.20
418;DHT22;49;48.530;9.200;2022-12-10T01:45:10;9.50;41.10
418;DHT22;49;48.530;9.200;2022-12-10T01:47:59;9.00;42.20
418;DHT22;49;48.530;9.200;2022-12-10T01:50:40;8.70;43.40
418;DHT22;49;48.530;9.200;2022-12-10T01:53:27;8.40;44.60
418;DHT22;49;48.530;9.200;2022-12-10T01:56:16;7.30;50.60
418;DHT22;49;48.530;9.200;2022-12-10T01:58:55;7.00;55.30
418;DHT22;49;48.530;9.200;2022-12-10T02:01:43;7.10;58.50
418;DHT22;49;48.530;9.200;2022-12-10T02:04:29;7.50;62.30
418;DHT22;49;48.530;9.200;2022-12-10T02:07:25;7.30;56.00
418;DHT22;49;48.530;9.200;2022-12-10T02:10:31;7.90;62.70
418;DHT22;49;48.530;9.200;2022-12-10T02:13:16;8.20;52.20
418;DHT22;49;48.530;9.200;2022-12-10T02:16:03;7.90;56.60
418;DHT22;49;48.530;9.200;2022-12-10T02:18:37;8.00;52.10
418;DHT22;49;48.530;9.200;2022-12-10T02:21:20;8.40;52.30
418;DHT22;49;48.530;9.200;2022-12-10T02:23:57;8.00;50.90
418;DHT22;49;48.530;9.200;2022-12-10T02:26:43;7.50;54.20
418;DHT22;49;48.530;9.200;2022-12-10T02:29:24;7.10;56.20
418;DHT22;49;48.530;9.200;2022-12-10T02:32:03;7.20;56.40
418;DHT22;49;48.530;9.200;2022-12-10T02:34:47;7.60;54.90
418;DHT22;49;48.530;9.200;2022-12-10T02:37:55;7.70;53.40
418;DHT22;49;48.530;9.200;2022-12-10T02:40:57;7.40;55.00
418;DHT22;49;48.530;9.200;2022-12-10T02:43:32;6.90;57.60
418;DHT22;49;48.530;9.200;2022-12-10T02:46:12;6.40;61.70
418;DHT22;49;48.530;9.200;2022-12-10T02:52:20;6.70;62.40
418;DHT22;49;48.530;9.200;2022-12-10T02:55:13;6.60;63.00
418;DHT22;49;48.530;9.200;2022-12-10T03:01:06;6.10;65.70
418;DHT22;49;48.530;9.200;2022-12-10T03:04:07;5.70;68.80
418;DHT22;49;48.530;9.200;2022-12-10T03:10:11;5.10;74.60
418;DHT22;49;48.530;9.200;2022-12-10T03:12:59;5.50;73.60
418;DHT22;49;48.530;9.200;2022-12-10T03:15:40;5.50;74.20
418;DHT22;49;48.530;9.200;2022-12-10T03:18:27;5.40;76.30
418;DHT22;49;48.530;9.200;2022-12-10T03:21:13;4.70;78.50
418;DHT22;49;48.530;9.200;2022-12-10T03:23:57;4.50;84.30
418;DHT22;49;48.530;9.200;2022-12-10T03:26:37;4.70;85.80
418;DHT22;49;48.530;9.200;2022-12-10T03:29:20;4.60;86.70
418;DHT22;49;48.530;9.200;2022-12-10T03:32:00;4.80;85.80
418;DHT22;49;48.530;9.200;2022-12-10T03:37:54;4.50;89.00
418;DHT22;49;48.530;9.200;2022-12-10T03:40:48;4.90;87.80
418;DHT22;49;48.530;9.200;2022-12-10T03:43:28;5.40;83.50
418;DHT22;49;48.530;9.200;2022-12-10T03:46:01;5.70;81.80
418;DHT22;49;48.530;9.200;2022-12-10T03:48:40;5.70;80.50
418;DHT22;49;48.530;9.200;2022-12-10T03:51:23;6.20;77.00
418;DHT22;49;48.530;9.200;2022-12-10T03:54:15;6.70;74.70
418;DHT22;49;48.530;9.200;2022-12-10T03:56:47;6.60;71.50
418;DHT22;49;48.530;9.200;2022-12-10T03:59:23;6.40;73.50
418;DHT22;49;48.530;9.200;2022-12-10T04:02:07;6.00;74.00
418;DHT22;49;48.530;9.200;2022-12-10T04:04:45;6.30;75.40
418;DHT22;49;48.530;9.200;2022-12-10T04:07:27;6.30;73.40
418;DHT22;49;48.530;9.200;2022-12-10T04:10:16;6.20;74.20
418;DHT22;49;48.530;9.200;2022-12-10T04:13:03;6.70;74.70
418;DHT22;49;48.530;9.200;2022-12-10T04:15:47;6.90;71.70
418;DHT22;49;48.530;9.200;2022-12-10T04:18:39;7.30;73.50
418;DHT22;49;48.530;9.200;2022-12-10T04:21:20;7.70;70.30
418;DHT22;49;48.530;9.200;2022-12-10T04:24:14;7.70;66.70
418;DHT22;49;48.530;9.200;2022-12-10T04:27:25;8.10;66.60
418;DHT22;49;48.530;9.200;2022-12-10T04:30:05;7.80;60.80
418;DHT22;49;48.530;9.200;2022-12-10T04:32:43;7.70;60.30
418;DHT22;49;48.530;9.200;2022-12-10T04:35:22;7.70;61.60
418;DHT22;49;48.530;9.200;2022-12-10T04:37:55;7.80;61.30
418;DHT22;49;48.530;9.200;2022-12-10T04:40:30;7.70;60.00
418;DHT22;49;48.530;9.200;2022-12-10T04:46:11;7.30;61.80
418;DHT22;49;48.530;9.200;2022-12-10T04:48:47;7.10;63.20
418;DHT22;49;48.530;9.200;2022-12-10T04:51:44;7.00;64.00
418;DHT22;49;48.530;9.200;2022-12-10T04:54:19;6.70;65.90
418;DHT22;49;48.530;9.200;2022-12-10T04:57:07;7.10;64.80
418;DHT22;49;48.530;9.200;2022-12-10T04:59:46;7.10;63.40
418;DHT22;49;48.530;9.200;2022-12-10T05:02:21;7.10;63.20
418;DHT22;49;48.530;9.200;2022-12-10T05:04:52;6.90;64.50
418;DHT22;49;48.530;9.200;2022-12-10T05:10:27;6.30;69.50
418;DHT22;49;48.530;9.200;2022-12-10T05:13:05;7.00;72.50
418;DHT22;49;48.530;9.200;2022-12-10T05:15:50;7.20;65.90
418;DHT22;49;48.530;9.200;2022-12-10T05:18:31;7.70;64.70
418;DHT22;49;48.530;9.200;2022-12-10T05:21:17;7.80;62.20
418;DHT22;49;48.530;9.200;2022-12-10T05:23:58;7.90;62.30
418;DHT22;49;48.530;9.200;2022-12-10T05:26:35;8.10;60.40
418;DHT22;49;48.530;9.200;2022-12-10T05:29:12;8.00;67.70
418;DHT22;49;48.530;9.200;2022-12-10T05:32:29;7.20;61.70
418;DHT22;49;48.530;9.200;2022-12-10T05:35:18;6.40;69.80
418;DHT22;49;48.530;9.200;2022-12-10T05:37:56;6.70;68.20
418;DHT22;49;48.530;9.200;2022-12-10T05:40:35;6.70;74.50
418;DHT22;49;48.530;9.200;2022-12-10T05:43:21;6.60;69.00
418;DHT22;49;48.530;9.200;2022-12-10T05:46:00;5.80;73.80
418;DHT22;49;48.530;9.200;2022-12-10T05:48:53;5.70;76.10
418;DHT22;49;48.530;9.200;2022-12-10T05:51:44;5.50;77.50
418;DHT22;49;48.530;9.200;2022-12-10T05:54:16;5.10;79.70
418;DHT22;49;48.530;9.200;2022-12-10T05:57:02;5.00;81.90
418;DHT22;49;48.530;9.200;2022-12-10T05:59:55;4.80;88.00
418;DHT22;49;48.530;9.200;2022-12-10T06:02:59;5.30;84.20
418;DHT22;49;48.530;9.200;2022-12-10T06:05:44;5.70;79.50
418;DHT22;49;48.530;9.200;2022-12-10T06:08:23;5.90;77.20
418;DHT22;49;48.530;9.200;2022-12-10T06:11:13;6.20;76.80
418;DHT22;49;48.530;9.200;2022-12-10T06:14:02;5.50;77.30
418;DHT22;49;48.530;9.200;2022-12-10T06:16:51;4.80;83.70
418;DHT22;49;48.530;9.200;2022-12-10T06:19:28;5.20;83.40
418;DHT22;49;48.530;9.200;2022-12-10T06:22:32;5.40;81.80
418;DHT22;49;48.530;9.200;2022-12-10T06:25:12;5.80;82.40
418;DHT22;49;48.530;9.200;2022-12-10T06:28:08;6.10;79.20
418;DHT22;49;48.530;9.200;2022-12-10T06:30:54;6.10;75.80
418;DHT22;49;48.530;9.200;2022-12-10T06:33:37;6.10;76.10
418;DHT22;49;48.530;9.200;2022-12-10T06:39:45;6.30;74.30
418;DHT22;49;48.530;9.200;2022-12-10T06:42:22;6.00;74.70
418;DHT22;49;48.530;9.200;2022-12-10T06:45:03;6.10;74.10
418;DHT22;49;48.530;9.200;2022-12-10T06:47:53;6.20;75.20
418;DHT22;49;48.530;9.200;2022-12-10T06:50:41;6.00;74.90
418;DHT22;49;48.530;9.200;2022-12-10T06:53:34;5.90;79.40
418;DHT22;49;48.530;9.200;2022-12-10T06:56:32;6.40;74.70
418;DHT22;49;48.530;9.200;2022-12-10T06:59:23;6.40;71.80
418;DHT22;49;48.530;9.200;2022-12-10T07:02:14;6.00;75.90
418;DHT22;49;48.530;9.200;2022-12-10T07:07:59;5.50;76.20
418;DHT22;49;48.530;9.200;2022-12-10T07:10:58;5.40;77.30
418;DHT22;49;48.530;9.200;2022-12-10T07:13:36;5.20;78.00
418;DHT22;49;48.530;9.200;2022-12-10T07:16:14;4.70;85.70
418;DHT22;49;48.530;9.200;2022-12-10T07:18:48;4.40;86.30
418;DHT22;49;48.530;9.200;2022-12-10T07:21:29;4.10;89.60
418;DHT22;49;48.530;9.200;2022-12-10T07:24:20;4.60;87.80
418;DHT22;49;48.530;9.200;2022-12-10T07:27:11;4.70;88.00
418;DHT22;49;48.530;9.200;2022-12-10T07:29:57;4.90;85.90
418;DHT22;49;48.530;9.200;2022-12-10T07:32:30;5.00;85.90
418;DHT22;49;48.530;9.200;2022-12-10T07:35:16;5.10;85.40
418;DHT22;49;48.530;9.200;2022-12-10T07:37:47;5.80;81.30
418;DHT22;49;48.530;9.200;2022-12-10T07:40:34;5.80;77.60
418;DHT22;49;48.530;9.200;2022-12-10T07:43:16;6.10;76.80
418;DHT22;49;48.530;9.200;2022-12-10T07:46:05;6.40;74.20
418;DHT22;49;48.530;9.200;2022-12-10T07:49:05;6.20;73.40
418;DHT22;49;48.530;9.200;2022-12-10T07:51:39;5.50;76.90
418;DHT22;49;48.530;9.200;2022-12-10T07:54:23;5.90;75.80
418;DHT22;49;48.530;9.200;2022-12-10T07:56:58;5.60;76.40
418;DHT22;49;48.530;9.200;2022-12-10T07:59:52;5.40;76.60
418;DHT22;49;48.530;9.200;2022-12-10T08:02:28;5.90;76.00
418;DHT22;49;48.530;9.200;2022-12-10T08:05:00;6.00;73.90
418;DHT22;49;48.530;9.200;2022-12-10T08:07:53;5.70;75.80
418;DHT22;49;48.530;9.200;2022-12-10T08:10:37;5.80;75.10
418;DHT22;49;48.530;9.200;2022-12-10T08:13:12;5.90;73.90
418;DHT22;49;48.530;9.200;2022-12-10T08:18:53;5.80;74.80
418;DHT22;49;48.530;9.200;2022-12-10T08:21:35;6.30;73.40
418;DHT22;49;48.530;9.200;2022-12-10T08:24:16;5.80;72.50
418;DHT22;49;48.530;9.200;2022-12-10T08:26:58;5.70;76.30
418;DHT22;49;48.530;9.200;2022-12-10T08:29:33;5.90;73.90
418;DHT22;49;48.530;9.200;2022-12-10T08:32:17;6.20;72.80
418;DHT22;49;48.530;9.200;2022-12-10T08:34:51;6.50;70.80
418;DHT22;49;48.530;9.200;2022-12-10T08:37:36;6.70;66.20
418;DHT22;49;48.530;9.200;2022-12-10T08:40:10;6.30;67.00
418;DHT22;49;48.530;9.200;2022-12-10T08:42:42;6.70;66.60
418;DHT22;49;48.530;9.200;2022-12-10T08:45:20;6.30;66.80
418;DHT22;49;48.530;9.200;2022-12-10T08:47:59;6.20;66.60
418;DHT22;49;48.530;9.200;2022-12-10T08:50:45;5.70;69.50
418;DHT22;49;48.530;9.200;2022-12-10T08:53:17;5.60;71.90
418;DHT22;49;48.530;9.200;2022-12-10T08:55:57;5.00;75.40
418;DHT22;49;48.530;9.200;2022-12-10T08:58:35;5.20;78.70
418;DHT22;49;48.530;9.200;2022-12-10T09:01:10;6.00;74.00
418;DHT22;49;48.530;9.200;2022-12-10T09:03:50;6.60;69.90
418;DHT22;49;48.530;9.200;2022-12-10T09:06:22;7.20;65.50
418;DHT22;49;48.530;9.200;2022-12-10T09:08:56;7.60;64.20
418;DHT22;49;48.530;9.200;2022-12-10T09:11:34;7.90;58.50
418;DHT22;49;48.530;9.200;2022-12-10T09:14:11;7.80;55.80
418;DHT22;49;48.530;9.200;2022-12-10T09:16:43;7.90;55.90
418;DHT22;49;48.530;9.200;2022-12-10T09:19:39;7.50;55.60
418;DHT22;49;48.530;9.200;2022-12-10T09:22:44;7.50;56.70
418;DHT22;49;48.530;9.200;2022-12-10T09:25:15;7.50;56.70
418;DHT22;49;48.530;9.200;2022-12-10T09:27:47;7.80;55.60
418;DHT22;49;48.530;9.200;2022-12-10T09:30:20;7.60;55.80
418;DHT22;49;48.530;9.200;2022-12-10T09:33:11;7.80;55.40
418;DHT22;49;48.530;9.200;2022-12-10T09:35:45;7.80;53.50
418;DHT22;49;48.530;9.200;2022-12-10T09:38:23;7.50;54.10
418;DHT22;49;48.530;9.200;2022-12-10T09:41:13;7.30;57.80
418;DHT22;49;48.530;9.200;2022-12-10T09:44:07;7.50;55.20
418;DHT22;49;48.530;9.200;2022-12-10T09:46:51;7.80;53.40
418;DHT22;49;48.530;9.200;2022-12-10T09:49:50;8.00;53.40
418;DHT22;49;48.530;9.200;2022-12-10T09:52:32;7.70;53.40
418;DHT22;49;48.530;9.200;2022-12-10T09:55:15;7.70;56.40
418;DHT22;49;48.530;9.200;2022-12-10T09:58:05;7.70;53.80
418;DHT22;49;48.530;9.200;2022-12-10T10:00:51;8.00;53.30
418;DHT22;49;48.530;9.200;2022-12-10T10:03:43;7.60;54.50
418;DHT22;49;48.530;9.200;2022-12-10T10:06:31;7.30;54.60
418;DHT22;49;48.530;9.200;2022-12-10T10:09:02;7.10;56.50
418;DHT22;49;48.530;9.200;2022-12-10T10:11:58;7.40;57.60
418;DHT22;49;48.530;9.200;2022-12-10T10:14:56;7.20;56.40
418;DHT22;49;48.530;9.200;2022-12-10T10:17:42;6.70;60.00
418;DHT22;49;48.530;9.200;2022-12-10T10:20:22;6.10;63.10
418;DHT22;49;48.530;9.200;2022-12-10T10:23:08;6.00;66.80
418;DHT22;49;48.530;9.200;2022-12-10T10:25:56;6.40;64.40
418;DHT22;49;48.530;9.200;2022-12-10T10:28:40;6.50;65.00
418;DHT22;49;48.530;9.200;2022-12-10T10:31:20;6.90;65.40
418;DHT22;49;48.530;9.200;2022-12-10T10:34:04;7.40;60.40
418;DHT22;49;48.530;9.200;2022-12-10T10:36:37;7.80;58.70
418;DHT22;49;48.530;9.200;2022-12-10T10:39:18;8.30;54.80
418;DHT22;49;48.530;9.200;2022-12-10T10:41:59;8.50;52.70
418;DHT22;49;48.530;9.200;2022-12-10T10:44:48;8.20;50.70
418;DHT22;49;48.530;9.200;2022-12-10T10:47:32;8.00;53.30
418;DHT22;49;48.530;9.200;2022-12-10T10:50:29;7.70;50.70
418;DHT22;49;48.530;9.200;2022-12-10T10:53:42;7.50;55.10
418;DHT22;49;48.530;9.200;2022-12-10T10:56:51;7.60;51.60
418;DHT22;49;48.530;9.200;2022-12-10T10:59:43;7.60;50.80
418;DHT22;49;48.530;9.200;2022-12-10T11:02:30;7.50;51.30
418;DHT22;49;48.530;9.200;2022-12-10T11:05:58;7.30;53.50
418;DHT22;49;48.530;9.200;2022-12-10T11:08:28;6.90;52.20
418;DHT22;49;48.530;9.200;2022-12-10T11:11:18;6.80;54.20
418;DHT22;49;48.530;9.200;2022-12-10T11:14:00;7.30;55.10
418;DHT22;49;48.530;9.200;2022-12-10T11:17:12;7.50;51.30
418;DHT22;49;48.530;9.200;2022-12-10T11:22:55;7.60;59.20
418;DHT22;49;48.530;9.200;2022-12-10T11:26:02;7.70;51.50
418;DHT22;49;48.530;9.200;2022-12-10T11:28:46;7.70;54.40
418;DHT22;49;48.530;9.200;2022-12-10T11:31:54;8.40;51.70
418;DHT22;49;48.530;9.200;2022-12-10T11:34:43;8.80;56.10
418;DHT22;49;48.530;9.200;2022-12-10T11:37:46;8.50;45.30
418;DHT22;49;48.530;9.200;2022-12-10T11:40:43;7.70;46.90
418;DHT22;49;48.530;9.200;2022-12-10T11:43:38;7.00;49.80
418;DHT22;49;48.530;9.200;2022-12-10T11:46:49;6.70;55.30
418;DHT22;49;48.530;9.200;2022-12-10T11:49:35;6.60;53.70
418;DHT22;49;48.530;9.200;2022-12-10T11:52:40;6.00;57.40
418;DHT22;49;48.530;9.200;2022-12-10T11:55:38;6.20;57.80
418;DHT22;49;48.530;9.200;2022-12-10T11:58:50;6.90;53.10
418;DHT22;49;48.530;9.200;2022-12-10T12:01:34;7.40;50.00
418;DHT22;49;48.530;9.200;2022-12-10T12:04:23;7.40;47.10
418;DHT22;49;48.530;9.200;2022-12-10T12:07:18;7.00;48.00
418;DHT22;49;48.530;9.200;2022-12-10T12:10:29;7.30;50.50
418;DHT22;49;48.530;9.200;2022-12-10T12:13:10;7.70;53.00
418;DHT22;49;48.530;9.200;2022-12-10T12:16:01;7.80;47.40
418;DHT22;49;48.530;9.200;2022-12-10T12:18:41;7.80;48.60
418;DHT22;49;48.530;9.200;2022-12-10T12:21:22;8.00;48.90
418;DHT22;49;48.530;9.200;2022-12-10T12:24:06;8.10;41.00
418;DHT22;49;48.530;9.200;2022-12-10T12:26:48;7.50;42.40
418;DHT22;49;48.530;9.200;2022-12-10T12:29:30;7.20;44.00
418;DHT22;49;48.530;9.200;2022-12-10T12:32:19;7.20;43.50
418;DHT22;49;48.530;9.200;2022-12-10T12:35:08;7.30;46.30
418;DHT22;49;48.530;9.200;2022-12-10T12:37:58;7.40;41.30
418;DHT22;49;48.530;9.200;2022-12-10T12:40:56;7.30;38.00
418;DHT22;49;48.530;9.200;2022-12-10T12:43:51;7.70;40.70
418;DHT22;49;48.530;9.200;2022-12-10T12:46:40;7.50;39.40
418;DHT22;49;48.530;9.200;2022-12-10T12:49:28;6.90;41.50
418;DHT22;49;48.530;9.200;2022-12-10T12:52:25;7.70;53.30
418;DHT22;49;48.530;9.200;2022-12-10T12:55:02;8.20;46.30
418;DHT22;49;48.530;9.200;2022-12-10T12:57:47;8.40;41.00
418;DHT22;49;48.530;9.200;2022-12-10T13:00:34;8.80;46.40
418;DHT22;49;48.530;9.200;2022-12-10T13:03:29;9.00;38.00
418;DHT22;49;48.530;9.200;2022-12-10T13:06:28;9.10;37.30
418;DHT22;49;48.530;9.200;2022-12-10T13:09:25;8.60;35.20
418;DHT22;49;48.530;9.200;2022-12-10T13:12:44;8.40;35.20
418;DHT22;49;48.530;9.200;2022-12-10T13:15:43;8.10;41.00
418;DHT22;49;48.530;9.200;2022-12-10T13:18:38;8.40;48.00
418;DHT22;49;48.530;9.200;2022-12-10T13:21:32;8.40;41.00
418;DHT22;49;48.530;9.200;2022-12-10T13:24:20;8.00;56.30
418;DHT22;49;48.530;9.200;2022-12-10T13:27:36;8.20;39.80
418;DHT22;49;48.530;9.200;2022-12-10T13:31:05;7.90;40.20
418;DHT22;49;48.530;9.200;2022-12-10T13:34:05;7.90;45.70
418;DHT22;49;48.530;9.200;2022-12-10T13:40:14;7.50;50.10
418;DHT22;49;48.530;9.200;2022-12-10T13:43:41;8.10;45.90
418;DHT22;49;48.530;9.200;2022-12-10T13:47:21;8.10;36.90
418;DHT22;49;48.530;9.200;2022-12-10T13:50:17;7.90;43.40
418;DHT22;49;48.530;9.200;2022-12-10T13:53:03;8.40;44.00
418;DHT22;49;48.530;9.200;2022-12-10T13:55:59;8.60;38.00
418;DHT22;49;48.530;9.200;2022-12-10T13:58:54;8.50;53.50
418;DHT22;49;48.530;9.200;2022-12-10T14:01:55;8.30;38.60
418;DHT22;49;48.530;9.200;2022-12-10T14:08:33;8.50;42.50
418;DHT22;49;48.530;9.200;2022-12-10T14:11:30;9.00;46.20
418;DHT22;49;48.530;9.200;2022-12-10T14:14:32;8.80;32.40
418;DHT22;49;48.530;9.200;2022-12-10T14:17:17;8.40;35.10
418;DHT22;49;48.530;9.200;2022-12-10T14:20:13;8.60;37.50
418;DHT22;49;48.530;9.200;2022-12-10T14:22:53;8.80;44.50
418;DHT22;49;48.530;9.200;2022-12-10T14:25:46;8.80;41.60
418;DHT22;49;48.530;9.200;2022-12-10T14:28:23;9.10;42.80
418;DHT22;49;48.530;9.200;2022-12-10T14:31:07;9.00;44.10
418;DHT22;49;48.530;9.200;2022-12-10T14:33:55;9.30;42.50
418;DHT22;49;48.530;9.200;2022-12-10T14:36:43;9.30;36.70
418;DHT22;49;48.530;9.200;2022-12-10T14:39:32;8.50;29.70
418;DHT22;49;48.530;9.200;2022-12-10T14:42:44;8.00;34.70
418;DHT22;49;48.530;9.200;2022-12-10T14:45:38;7.90;35.30
418;DHT22;49;48.530;9.200;2022-12-10T14:54:29;8.40;50.20
418;DHT22;49;48.530;9.200;2022-12-10T14:57:13;8.40;44.60
418;DHT22;49;48.530;9.200;2022-12-10T15:00:09;8.40;39.00
418;DHT22;49;48.530;9.200;2022-12-10T15:03:00;8.30;46.50
418;DHT22;49;48.530;9.200;2022-12-10T15:05:41;8.80;55.00
418;DHT22;49;48.530;9.200;2022-12-10T15:08:16;9.20;55.60
418;DHT22;49;48.530;9.200;2022-12-10T15:14:21;9.40;42.50
418;DHT22;49;48.530;9.200;2022-12-10T15:27:22;9.10;35.60
418;DHT22;49;48.530;9.200;2022-12-10T15:30:28;9.00;44.60
418;DHT22;49;48.530;9.200;2022-12-10T15:33:27;9.60;40.00
418;DHT22;49;48.530;9.200;2022-12-10T15:36:14;9.00;35.60
418;DHT22;49;48.530;9.200;2022-12-10T15:39:26;9.00;42.60
418;DHT22;49;48.530;9.200;2022-12-10T15:42:24;8.80;38.60
418;DHT22;49;48.530;9.200;2022-12-10T15:45:18;8.50;45.10
418;DHT22;49;48.530;9.200;2022-12-10T15:51:13;8.70;47.80
418;DHT22;49;48.530;9.200;2022-12-10T15:57:22;8.50;41.60
418;DHT22;49;48.530;9.200;2022-12-10T16:00:04;8.30;43.40
418;DHT22;49;48.530;9.200;2022-12-10T16:02:52;8.60;47.60
418;DHT22;49;48.530;9.200;2022-12-10T16:05:30;8.40;40.40
418;DHT22;49;48.530;9.200;2022-12-10T16:11:46;8.40;39.50
418;DHT22;49;48.530;9.200;2022-12-10T16:16:02;8.30;39.20
418;DHT22;49;48.530;9.200;2022-12-10T16:18:04;8.30;42.10
418;DHT22;49;48.530;9.200;2022-12-10T16:23:52;8.50;40.00
418;DHT22;49;48.530;9.200;2022-12-10T16:26:53;8.10;40.50
418;DHT22;49;48.530;9.200;2022-12-10T16:30:05;7.80;41.70
418;DHT22;49;48.530;9.200;2022-12-10T16:32:51;8.00;43.60
418;DHT22;49;48.530;9.200;2022-12-10T16:35:42;7.80;40.10
418;DHT22;49;48.530;9.200;2022-12-10T16:38:24;8.20;44.40
418;DHT22;49;48.530;9.200;2022-12-10T16:41:14;8.10;40.50
418;DHT22;49;48.530;9.200;2022-12-10T16:46:42;8.00;38.30
418;DHT22;49;48.530;9.200;2022-12-10T16:49:29;7.80;38.70
418;DHT22;49;48.530;9.200;2022-12-10T16:52:23;8.00;42.00
418;DHT22;49;48.530;9.200;2022-12-10T16:55:11;8.00;44.10
418;DHT22;49;48.530;9.200;2022-12-10T16:58:02;8.50;47.80
418;DHT22;49;48.530;9.200;2022-12-10T17:00:41;8.70;39.30
418;DHT22;49;48.530;9.200;2022-12-10T17:03:18;8.70;45.00
418;DHT22;49;48.530;9.200;2022-12-10T17:06:08;8.80;47.60
418;DHT22;49;48.530;9.200;2022-12-10T17:08:41;9.20;45.20
418;DHT22;49;48.530;9.200;2022-12-10T17:11:17;9.80;48.90
418;DHT22;49;48.530;9.200;2022-12-10T17:14:09;9.80;37.40
418;DHT22;49;48.530;9.200;2022-12-10T17:16:41;9.10;32.80
418;DHT22;49;48.530;9.200;2022-12-10T17:19:12;8.70;33.50
418;DHT22;49;48.530;9.200;2022-12-10T17:21:40;8.60;39.30
418;DHT22;49;48.530;9.200;2022-12-10T17:24:11;8.50;36.00
418;DHT22;49;48.530;9.200;2022-12-10T17:26:42;8.40;35.10
418;DHT22;49;48.530;9.200;2022-12-10T17:29:25;8.40;37.10
418;DHT22;49;48.530;9.200;2022-12-10T17:31:54;8.50;36.30
418;DHT22;49;48.530;9.200;2022-12-10T17:34:32;8.10;34.80
418;DHT22;49;48.530;9.200;2022-12-10T17:37:09;8.10;34.80
418;DHT22;49;48.530;9.200;2022-12-10T17:39:57;7.80;35.30
418;DHT22;49;48.530;9.200;2022-12-10T17:42:35;7.60;36.20
418;DHT22;49;48.530;9.200;2022-12-10T17:45:18;7.60;38.50
418;DHT22;49;48.530;9.200;2022-12-10T17:47:50;7.50;37.80
418;DHT22;49;48.530;9.200;2022-12-10T17:50:25;7.50;37.00
418;DHT22;49;48.530;9.200;2022-12-10T17:53:06;7.50;37.20
418;DHT22;49;48.530;9.200;2022-12-10T17:55:35;7.40;37.70
418;DHT22;49;48.530;9.200;2022-12-10T17:58:09;7.50;38.70
418;DHT22;49;48.530;9.200;2022-12-10T18:00:44;7.70;44.00
418;DHT22;49;48.530;9.200;2022-12-10T18:03:20;7.30;38.40
418;DHT22;49;48.530;9.200;2022-12-10T18:06:00;7.20;38.10
418;DHT22;49;48.530;9.200;2022-12-10T18:08:32;7.10;39.10
418;DHT22;49;48.530;9.200;2022-12-10T18:11:04;7.00;46.60
418;DHT22;49;48.530;9.200;2022-12-10T18:13:32;7.10;58.10
418;DHT22;49;48.530;9.200;2022-12-10T18:16:23;7.10;40.30
418;DHT22;49;48.530;9.200;2022-12-10T18:18:56;7.00;38.60
418;DHT22;49;48.530;9.200;2022-12-10T18:24:55;6.90;47.90
418;DHT22;49;48.530;9.200;2022-12-10T18:27:29;6.70;41.20
418;DHT22;49;48.530;9.200;2022-12-10T18:30:12;6.60;40.70
418;DHT22;49;48.530;9.200;2022-12-10T18:32:47;6.70;45.30
418;DHT22;49;48.530;9.200;2022-12-10T18:35:24;6.70;40.30
418;DHT22;49;48.530;9.200;2022-12-10T18:38:12;6.90;49.00
418;DHT22;49;48.530;9.200;2022-12-10T18:40:56;7.10;36.70
418;DHT22;49;48.530;9.200;2022-12-10T18:43:46;7.10;39.20
418;DHT22;49;48.530;9.200;2022-12-10T18:46:32;7.20;37.80
418;DHT22;49;48.530;9.200;2022-12-10T18:52:56;7.60;42.60
418;DHT22;49;48.530;9.200;2022-12-10T18:58:46;7.70;48.60
418;DHT22;49;48.530;9.200;2022-12-10T19:01:45;7.70;35.80
418;DHT22;49;48.530;9.200;2022-12-10T19:21:18;8.90;48.80
418;DHT22;49;48.530;9.200;2022-12-10T19:24:26;8.90;36.40
418;DHT22;49;48.530;9.200;2022-12-10T19:27:04;8.80;35.40
418;DHT22;49;48.530;9.200;2022-12-10T19:29:43;8.80;39.10
418;DHT22;49;48.530;9.200;2022-12-10T19:32:34;8.90;40.80
418;DHT22;49;48.530;9.200;2022-12-10T19:35:13;9.00;45.80
418;DHT22;49;48.530;9.200;2022-12-10T19:41:31;9.40;41.30
418;DHT22;49;48.530;9.200;2022-12-10T19:44:08;9.50;41.80
418;DHT22;49;48.530;9.200;2022-12-10T19:46:39;9.30;35.60
418;DHT22;49;48.530;9.200;2022-12-10T19:49:18;9.40;42.80
418;DHT22;49;48.530;9.200;2022-12-10T19:51:54;9.30;38.40
418;DHT22;49;48.530;9.200;2022-12-10T19:54:32;9.20;33.00
418;DHT22;49;48.530;9.200;2022-12-10T19:57:12;9.20;38.90
418;DHT22;49;48.530;9.200;2022-12-10T19:59:43;9.30;37.30
418;DHT22;49;48.530;9.200;2022-12-10T20:02:16;9.40;43.30
418;DHT22;49;48.530;9.200;2022-12-10T20:04:51;9.50;40.50
418;DHT22;49;48.530;9.200;2022-12-10T20:07:26;9.60;42.60
418;DHT22;49;48.530;9.200;2022-12-10T20:10:00;9.70;43.90
418;DHT22;49;48.530;9.200;2022-12-10T20:12:32;10.00;40.00
418;DHT22;49;48.530;9.200;2022-12-10T20:15:07;9.70;39.10
418;DHT22;49;48.530;9.200;2022-12-10T20:17:41;9.80;41.50
418;DHT22;49;48.530;9.200;2022-12-10T20:20:14;9.80;41.80
418;DHT22;49;48.530;9.200;2022-12-10T20:22:58;10.20;47.30
418;DHT22;49;48.530;9.200;2022-12-10T20:25:44;10.60;45.50
418;DHT22;49;48.530;9.200;2022-12-10T20:30:57;10.30;30.20
418;DHT22;49;48.530;9.200;2022-12-10T20:33:42;10.00;36.50
418;DHT22;49;48.530;9.200;2022-12-10T20:36:31;10.00;43.80
418;DHT22;49;48.530;9.200;2022-12-10T20:39:22;10.10;39.40
418;DHT22;49;48.530;9.200;2022-12-10T20:41:59;9.70;29.20
418;DHT22;49;48.530;9.200;2022-12-10T20:44:57;9.50;41.60
418;DHT22;49;48.530;9.200;2022-12-10T20:47:52;10.00;42.60
418;DHT22;49;48.530;9.200;2022-12-10T20:50:44;9.50;42.00
418;DHT22;49;48.530;9.200;2022-12-10T20:53:30;9.60;33.50
418;DHT22;49;48.530;9.200;2022-12-10T20:56:00;9.30;43.40
418;DHT22;49;48.530;9.200;2022-12-10T20:58:35;9.60;36.10
418;DHT22;49;48.530;9.200;2022-12-10T21:01:28;9.50;38.50
418;DHT22;49;48.530;9.200;2022-12-10T21:07:20;9.50;36.00
418;DHT22;49;48.530;9.200;2022-12-10T21:10:02;9.20;49.80
418;DHT22;49;48.530;9.200;2022-12-10T21:12:54;9.40;38.90